Time;durP1;ratioP1;P1;durP2;ratioP2;P2;SDS_P1;SDS_P2;PMS_P1;PMS_P2;Temp;Humidity;BMP_temperature;BMP_pressure;BME280_temperature;BME280_humidity;BME280_pressure;Samples;Min_cycle;Max_cycle;Signal;HPM_P1;HPM_P2
2021/05/09 00:00:02;;;;;;;5.12;1.60;;;;;;;5.87;74.64;100888.30;1747705;80;20946;-67
2021/05/09 00:02:31;;;;;;;1.52;1.42;;;;;;;5.86;74.64;100884.45;1775519;80;20946;-66
2021/05/09 00:05:01;;;;;;;3.25;1.20;;;;;;;5.86;74.72;100887.05;1775509;80;20938;-66
2021/05/09 00:07:29;;;;;;;2.75;1.50;;;;;;;5.84;74.70;100886.25;1775527;79;21002;-66
2021/05/09 00:09:58;;;;;;;1.17;1.17;;;;;;;5.83;74.83;100875.46;1775512;79;21171;-65
2021/05/09 00:12:28;;;;;;;1.32;1.15;;;;;;;5.80;74.93;100879.00;1775605;79;21034;-66
2021/05/09 00:14:56;;;;;;;8.58;1.57;;;;;;;5.77;75.03;100879.12;1775518;79;20987;-66
2021/05/09 00:17:24;;;;;;;3.90;1.50;;;;;;;5.77;75.04;100876.52;1775559;80;21356;-66
2021/05/09 00:19:53;;;;;;;1.10;1.00;;;;;;;5.74;75.14;100880.08;1775545;80;20919;-66
2021/05/09 00:22:21;;;;;;;1.42;1.32;;;;;;;5.70;75.07;100882.39;1775486;80;21195;-67
2021/05/09 00:24:50;;;;;;;1.27;1.17;;;;;;;5.66;75.17;100872.15;1775360;79;20958;-67
2021/05/09 00:27:18;;;;;;;1.70;1.22;;;;;;;5.63;75.29;100870.97;1775537;80;21038;-66
2021/05/09 00:29:46;;;;;;;2.17;1.42;;;;;;;5.61;75.33;100881.42;1775449;80;20986;-66
2021/05/09 00:32:16;;;;;;;1.10;0.90;;;;;;;5.59;75.42;100887.97;1775416;80;20967;-65
2021/05/09 00:34:44;;;;;;;1.37;1.27;;;;;;;5.57;75.51;100898.03;1775522;80;21791;-67
2021/05/09 00:37:13;;;;;;;3.27;1.90;;;;;;;5.55;75.65;100904.58;1775515;79;20938;-65
2021/05/09 00:39:41;;;;;;;2.47;1.67;;;;;;;5.56;75.57;100902.39;1775607;80;21363;-67
2021/05/09 00:42:09;;;;;;;3.30;1.17;;;;;;;5.56;75.50;100902.86;1775486;80;20975;-66
2021/05/09 00:44:37;;;;;;;2.83;1.32;;;;;;;5.51;75.56;100909.48;1775524;80;21129;-66
2021/05/09 00:47:11;;;;;;;2.12;1.75;;;;;;;5.48;75.53;100908.30;1775515;79;21346;-67
2021/05/09 00:49:40;;;;;;;3.77;2.22;;;;;;;5.47;75.67;100913.55;1775696;79;20946;-66
2021/05/09 00:52:10;;;;;;;1.65;1.55;;;;;;;5.44;75.66;100914.96;1775604;80;20927;-67
2021/05/09 00:54:53;;;;;;;2.10;1.37;;;;;;;5.42;75.75;100915.47;1775421;80;20923;-66
2021/05/09 00:57:22;;;;;;;2.52;1.80;;;;;;;5.38;75.76;100914.28;1775512;80;20990;-68
2021/05/09 00:59:51;;;;;;;2.35;2.02;;;;;;;5.37;75.81;100919.06;1775496;79;21361;-67
2021/05/09 01:02:20;;;;;;;1.90;1.40;;;;;;;5.35;75.76;100922.16;1775383;79;21018;-66
2021/05/09 01:04:49;;;;;;;1.50;1.40;;;;;;;5.32;75.79;100926.17;1775479;79;20956;-66
2021/05/09 01:07:18;;;;;;;2.65;2.02;;;;;;;5.31;75.75;100928.82;1775418;80;21017;-66
2021/05/09 01:09:46;;;;;;;1.62;1.25;;;;;;;5.31;75.59;100938.77;1775588;80;21433;-68
2021/05/09 01:12:16;;;;;;;4.78;1.65;;;;;;;5.31;75.54;100937.47;1775514;80;21359;-67
2021/05/09 01:14:46;;;;;;;3.00;1.50;;;;;;;5.29;75.47;100936.70;1775451;80;21123;-67
2021/05/09 01:17:14;;;;;;;2.25;2.05;;;;;;;5.28;75.52;100944.08;1775429;80;20927;-67
2021/05/09 01:19:44;;;;;;;1.55;1.45;;;;;;;5.28;75.52;100944.08;1775451;80;20972;-66
2021/05/09 01:22:12;;;;;;;2.92;1.80;;;;;;;5.25;75.46;100944.19;1775503;80;20935;-66
2021/05/09 01:24:41;;;;;;;2.60;1.90;;;;;;;5.24;75.31;100944.23;1775501;79;21191;-67
2021/05/09 01:27:09;;;;;;;2.37;1.77;;;;;;;5.19;75.31;100955.63;1775387;79;20946;-66
2021/05/09 01:29:37;;;;;;;1.55;1.45;;;;;;;5.17;75.23;100952.67;1775531;80;21543;-67
2021/05/09 01:32:07;;;;;;;1.98;1.62;;;;;;;5.17;75.33;100959.18;1775482;80;21634;-65
2021/05/09 01:34:36;;;;;;;4.08;1.57;;;;;;;5.17;75.45;100957.88;1778015;80;21447;-66
2021/05/09 01:37:05;;;;;;;1.40;1.25;;;;;;;5.18;75.41;100957.84;1776211;80;21209;-67
2021/05/09 01:39:34;;;;;;;3.47;1.47;;;;;;;5.16;75.39;100964.84;1775790;80;20930;-67
2021/05/09 01:42:04;;;;;;;3.52;1.70;;;;;;;5.16;75.38;100968.73;1775684;80;20950;-67
2021/05/09 01:44:33;;;;;;;2.10;1.80;;;;;;;5.15;75.16;100964.41;1775365;80;20958;-66
2021/05/09 01:47:01;;;;;;;1.82;1.70;;;;;;;5.14;75.00;100969.23;1775559;80;21041;-67
2021/05/09 01:49:31;;;;;;;1.70;1.60;;;;;;;5.12;74.97;100968.88;1775484;80;22391;-66
2021/05/09 01:52:00;;;;;;;1.92;1.50;;;;;;;5.13;74.82;100973.17;1775410;80;20993;-66
2021/05/09 01:54:28;;;;;;;3.25;1.95;;;;;;;5.13;74.66;100970.11;1775473;79;21022;-67
2021/05/09 01:56:56;;;;;;;1.47;1.37;;;;;;;5.12;74.61;100964.98;1775378;79;21006;-66
2021/05/09 01:59:27;;;;;;;6.83;1.60;;;;;;;5.13;74.54;100973.17;1775409;79;20994;-68
2021/05/09 02:01:56;;;;;;;1.52;1.42;;;;;;;5.12;74.68;100977.52;1775585;80;21483;-66
2021/05/09 02:04:32;;;;;;;1.77;1.40;;;;;;;5.12;74.45;100980.58;1775075;80;21478;-66
2021/05/09 02:07:02;;;;;;;8.35;1.62;;;;;;;5.11;74.20;100985.36;1775380;80;20929;-66
2021/05/09 02:09:31;;;;;;;3.27;1.87;;;;;;;5.07;74.12;100987.23;1775411;79;20930;-66
2021/05/09 02:12:01;;;;;;;6.60;1.75;;;;;;;5.08;74.12;100991.52;1775476;80;20903;-67
2021/05/09 02:14:37;;;;;;;3.83;1.30;;;;;;;5.07;74.04;100998.05;1774791;80;21379;-67
2021/05/09 02:17:05;;;;;;;3.75;1.77;;;;;;;5.07;74.01;100999.34;1775385;80;21033;-67
2021/05/09 02:19:34;;;;;;;1.65;1.55;;;;;;;5.07;73.95;101001.52;1775477;80;20899;-67
2021/05/09 02:22:03;;;;;;;3.40;1.82;;;;;;;5.06;74.06;101006.30;1775415;80;20939;-66
2021/05/09 02:24:32;;;;;;;2.77;1.50;;;;;;;5.08;73.97;101004.51;1775525;80;21482;-67
2021/05/09 02:27:01;;;;;;;2.45;1.42;;;;;;;5.07;73.93;101007.14;1775367;80;22268;-67
2021/05/09 02:29:29;;;;;;;1.50;1.40;;;;;;;5.08;73.95;101004.97;1775353;80;20946;-68
2021/05/09 02:31:58;;;;;;;1.45;1.30;;;;;;;5.08;73.62;101011.47;1775428;79;21002;-65
2021/05/09 02:34:28;;;;;;;2.20;2.00;;;;;;;5.08;73.59;101007.56;1775211;80;21018;-66
2021/05/09 02:36:57;;;;;;;1.42;1.30;;;;;;;5.06;73.63;101010.66;1775442;80;21405;-67
2021/05/09 02:39:25;;;;;;;1.62;1.52;;;;;;;5.07;73.75;101013.64;1775875;80;21382;-67
2021/05/09 02:41:54;;;;;;;2.58;2.25;;;;;;;5.07;73.56;101012.34;1776706;80;20966;-66
2021/05/09 02:44:22;;;;;;;3.05;1.52;;;;;;;5.08;73.40;101010.16;1776641;80;20930;-68
2021/05/09 02:46:50;;;;;;;3.37;1.75;;;;;;;5.11;73.51;101016.55;1777592;80;20950;-68
2021/05/09 02:49:19;;;;;;;2.75;1.60;;;;;;;5.12;73.36;101024.31;1777964;79;20943;-66
2021/05/09 02:51:48;;;;;;;1.17;1.15;;;;;;;5.14;73.20;101025.12;1777447;80;21196;-67
2021/05/09 02:54:16;;;;;;;1.50;1.40;;;;;;;5.15;73.13;101028.11;1777569;80;21002;-67
2021/05/09 02:56:46;;;;;;;2.35;1.55;;;;;;;5.17;73.06;101026.77;1776806;80;21105;-67
2021/05/09 02:59:15;;;;;;;1.92;1.82;;;;;;;5.19;73.07;101032.78;1775506;80;21029;-68
2021/05/09 03:01:43;;;;;;;2.05;1.60;;;;;;;5.19;72.88;101031.48;1775477;80;20930;-68
2021/05/09 03:04:12;;;;;;;1.77;1.62;;;;;;;5.23;72.55;101033.55;1775373;79;21366;-67
2021/05/09 03:06:42;;;;;;;3.33;1.62;;;;;;;5.25;72.49;101037.80;1747468;80;20942;-68
2021/05/09 03:09:11;;;;;;;1.57;1.30;;;;;;;5.29;72.54;101035.50;1775389;80;20891;-69
2021/05/09 03:11:41;;;;;;;1.82;1.62;;;;;;;5.35;72.40;101046.14;1775402;80;20942;-67
2021/05/09 03:14:10;;;;;;;2.27;1.40;;;;;;;5.39;72.63;101056.40;1775507;80;21428;-68
2021/05/09 03:16:37;;;;;;;1.25;1.17;;;;;;;5.44;72.55;101058.02;1775349;80;21193;-69
2021/05/09 03:19:06;;;;;;;1.70;1.60;;;;;;;5.51;72.62;101058.20;1775323;80;20953;-67
2021/05/09 03:21:33;;;;;;;4.40;1.45;;;;;;;5.56;71.98;101062.38;1775341;79;20942;-67
2021/05/09 03:24:03;;;;;;;2.70;1.55;;;;;;;5.59;71.87;101058.83;1775331;80;20943;-67
2021/05/09 03:26:31;;;;;;;1.22;1.12;;;;;;;5.61;71.60;101070.03;1775346;80;20942;-66
2021/05/09 03:29:00;;;;;;;1.55;1.45;;;;;;;5.65;71.40;101074.25;1775404;79;21572;-66
2021/05/09 03:31:28;;;;;;;1.80;1.42;;;;;;;5.67;71.24;101069.84;1775311;79;21034;-67
2021/05/09 03:33:56;;;;;;;1.17;1.05;;;;;;;5.70;71.23;101078.84;1775392;80;20955;-66
2021/05/09 03:36:25;;;;;;;1.30;1.20;;;;;;;5.72;71.14;101076.20;1775367;80;20923;-66
2021/05/09 03:40:17;;;;;;;1.47;1.37;;;;;;;5.77;70.89;101073.83;1776890;79;22644;-67
2021/05/09 03:42:45;;;;;;;2.70;1.40;;;;;;;5.76;70.99;101090.81;1749704;82;20939;-67
2021/05/09 03:45:14;;;;;;;1.45;1.32;;;;;;;5.75;70.80;101082.59;1749705;80;22188;-67
2021/05/09 03:47:42;;;;;;;2.30;2.10;;;;;;;5.73;70.75;101092.20;1749606;81;20947;-67
2021/05/09 03:50:10;;;;;;;1.85;1.37;;;;;;;5.72;71.01;101094.41;1749665;81;20994;-66
2021/05/09 03:52:38;;;;;;;2.30;1.22;;;;;;;5.73;70.75;101103.91;1749580;82;21030;-67
2021/05/09 03:55:09;;;;;;;2.65;1.52;;;;;;;5.75;70.48;101109.45;1749680;80;20947;-66
2021/05/09 03:57:37;;;;;;;4.05;1.95;;;;;;;5.88;70.56;101107.78;1749738;82;21448;-67
2021/05/09 04:00:06;;;;;;;2.08;1.00;;;;;;;6.08;70.23;101117.11;1749591;82;20963;-66
2021/05/09 04:02:39;;;;;;;2.33;1.17;;;;;;;6.29;70.22;101122.48;1747330;82;20998;-66
2021/05/09 04:05:11;;;;;;;1.77;1.37;;;;;;;6.41;69.30;101122.92;1749600;82;20927;-72
2021/05/09 04:07:39;;;;;;;1.87;1.52;;;;;;;6.66;68.91;101122.06;1749783;81;21015;-67
2021/05/09 04:10:08;;;;;;;1.75;1.60;;;;;;;7.07;68.16;101126.24;1749633;80;21530;-68
2021/05/09 04:12:38;;;;;;;5.05;1.70;;;;;;;7.60;66.64;101132.47;1749590;82;21074;-67
2021/05/09 04:15:12;;;;;;;2.30;1.37;;;;;;;8.13;64.98;101135.56;1749710;82;20944;-67
2021/05/09 04:17:41;;;;;;;;;;;;;;;8.68;63.75;101130.17;1752225;82;20998;-68
2021/05/09 04:20:11;;;;;;;2.47;1.12;;;;;;;9.27;61.85;101136.69;1749639;82;20141;-68
2021/05/09 04:22:40;;;;;;;4.15;1.22;;;;;;;9.78;60.67;101143.47;1749743;82;22280;-67
2021/05/09 04:25:09;;;;;;;2.62;1.42;;;;;;;10.34;59.14;101148.58;1749616;82;21622;-67
2021/05/09 04:27:37;;;;;;;2.02;1.47;;;;;;;10.78;56.69;101149.39;1749588;82;21472;-67
2021/05/09 04:30:09;;;;;;;1.70;1.10;;;;;;;11.15;55.68;101147.88;1749602;80;20927;-66
2021/05/09 04:32:37;;;;;;;3.58;1.25;;;;;;;11.51;54.86;101150.73;1749770;82;21460;-67
2021/05/09 04:35:06;;;;;;;1.25;1.15;;;;;;;11.79;53.86;101144.32;1749596;82;21375;-67
2021/05/09 04:37:35;;;;;;;1.40;1.30;;;;;;;12.02;52.62;101144.34;1749778;81;21410;-68
2021/05/09 04:40:04;;;;;;;1.87;1.45;;;;;;;12.23;52.07;101141.42;1738911;81;20960;-69
2021/05/09 04:42:31;;;;;;;3.15;1.30;;;;;;;12.47;51.13;101143.05;1736436;82;21611;-67
2021/05/09 04:45:00;;;;;;;3.80;1.65;;;;;;;12.83;50.80;101141.80;1736423;82;20955;-67
2021/05/09 04:47:28;;;;;;;1.05;0.95;;;;;;;13.12;48.30;101146.58;1736431;82;22269;-66
2021/05/09 04:49:57;;;;;;;1.15;1.05;;;;;;;13.38;48.06;101153.33;1736140;82;21047;-66
2021/05/09 04:52:25;;;;;;;1.15;1.05;;;;;;;13.71;47.57;101156.92;1735826;82;20967;-67
2021/05/09 04:54:55;;;;;;;2.02;1.20;;;;;;;14.06;46.70;101163.85;1735819;82;20956;-66
2021/05/09 04:57:23;;;;;;;1.30;1.20;;;;;;;14.42;45.87;101167.62;1735877;81;20940;-66
2021/05/09 04:59:52;;;;;;;2.15;0.90;;;;;;;14.83;45.47;101167.09;1735853;81;21193;-67
2021/05/09 05:02:20;;;;;;;2.80;1.37;;;;;;;15.20;43.53;101168.48;1735700;82;20980;-66
2021/05/09 05:04:49;;;;;;;1.17;0.93;;;;;;;15.59;43.75;101166.13;1735858;81;20909;-68
2021/05/09 05:07:18;;;;;;;3.65;1.12;;;;;;;15.91;41.40;101173.05;1735751;82;21074;-66
2021/05/09 05:09:47;;;;;;;1.17;0.90;;;;;;;16.05;40.42;101174.69;1735828;81;20936;-66
2021/05/09 05:12:16;;;;;;;1.25;1.07;;;;;;;16.28;40.41;101170.80;1735836;82;21209;-66
2021/05/09 05:14:44;;;;;;;1.12;0.75;;;;;;;16.41;39.17;101177.31;1735784;82;21519;-66
2021/05/09 05:17:12;;;;;;;1.20;0.95;;;;;;;16.53;38.80;101182.53;1735783;82;20996;-67
2021/05/09 05:19:40;;;;;;;3.22;1.22;;;;;;;16.72;39.19;101187.27;1735761;82;20956;-67
2021/05/09 05:22:08;;;;;;;1.15;0.85;;;;;;;16.90;37.86;101185.04;1735808;81;21050;-67
2021/05/09 05:24:38;;;;;;;0.78;0.78;;;;;;;16.95;36.43;101181.54;1735783;82;21211;-68
2021/05/09 05:27:06;;;;;;;1.52;0.90;;;;;;;17.06;37.14;101185.17;1735739;82;20967;-66
2021/05/09 05:29:36;;;;;;;1.85;0.70;;;;;;;17.24;36.73;101187.69;1735842;82;20936;-66
2021/05/09 05:32:05;;;;;;;4.72;2.77;;;;;;;17.35;36.13;101196.95;1735992;82;20952;-66
2021/05/09 05:34:34;;;;;;;1.40;1.30;;;;;;;17.39;35.83;101193.59;1735866;81;20940;-67
2021/05/09 05:37:03;;;;;;;1.42;1.15;;;;;;;17.58;35.70;101194.27;1735813;82;22382;-66
2021/05/09 05:39:32;;;;;;;2.27;1.67;;;;;;;17.72;34.54;101189.17;1735706;81;20955;-67
2021/05/09 05:42:03;;;;;;;1.05;0.95;;;;;;;17.80;34.81;101188.08;1735800;82;21023;-67
2021/05/09 05:44:30;;;;;;;1.92;1.27;;;;;;;17.99;34.70;101192.77;1735799;81;20988;-67
2021/05/09 05:46:59;;;;;;;2.90;0.80;;;;;;;18.20;34.18;101198.94;1735831;82;21062;-67
2021/05/09 05:49:27;;;;;;;2.80;0.90;;;;;;;18.26;33.35;101204.73;1735868;82;22075;-67
2021/05/09 05:51:55;;;;;;;2.25;0.80;;;;;;;18.47;32.79;101204.23;1735691;81;20944;-66
2021/05/09 05:54:25;;;;;;;0.70;0.60;;;;;;;18.49;32.69;101206.77;1735769;82;21016;-67
2021/05/09 05:56:53;;;;;;;2.37;0.80;;;;;;;18.52;32.78;101203.39;1735766;82;21495;-67
2021/05/09 05:59:21;;;;;;;1.92;0.82;;;;;;;18.62;32.36;101189.66;1735867;82;21045;-67
2021/05/09 06:01:50;;;;;;;0.90;0.90;;;;;;;18.79;33.20;101193.58;1735603;82;21448;-66
2021/05/09 06:04:18;;;;;;;1.40;0.90;;;;;;;18.83;32.13;101207.43;1735703;81;21066;-67
2021/05/09 06:06:46;;;;;;;2.15;1.30;;;;;;;19.12;32.46;101206.73;1735708;82;20956;-68
2021/05/09 06:09:14;;;;;;;1.62;0.62;;;;;;;19.31;31.28;101205.98;1735758;82;20931;-69
2021/05/09 06:11:43;;;;;;;1.30;0.80;;;;;;;19.44;31.85;101211.91;1735805;82;20971;-68
2021/05/09 06:14:12;;;;;;;1.98;0.80;;;;;;;19.43;30.19;101205.76;1735729;81;21034;-67
2021/05/09 06:16:42;;;;;;;0.72;0.70;;;;;;;19.45;29.70;101206.47;1734318;82;20975;-68
2021/05/09 06:19:10;;;;;;;0.95;0.72;;;;;;;19.54;29.76;101211.93;1735708;82;21039;-70
2021/05/09 06:21:38;;;;;;;2.35;0.75;;;;;;;19.68;29.60;101203.58;1735718;82;21437;-67
2021/05/09 06:24:10;;;;;;;32.05;1.55;;;;;;;19.98;30.40;101207.98;1735871;82;21307;-67
2021/05/09 06:26:38;;;;;;;0.60;0.60;;;;;;;20.23;29.62;101209.27;1735778;81;22247;-67
2021/05/09 06:29:06;;;;;;;7.90;0.98;;;;;;;20.36;28.16;101212.13;1735655;82;20974;-70
2021/05/09 06:31:36;;;;;;;0.60;0.57;;;;;;;20.20;28.33;101214.86;1735776;82;20932;-67
2021/05/09 06:34:06;;;;;;;1.92;0.80;;;;;;;20.13;28.95;101216.41;1735698;82;20932;-67
2021/05/09 06:36:35;;;;;;;1.02;0.50;;;;;;;20.30;28.48;101213.55;1735762;81;20952;-67
2021/05/09 06:39:05;;;;;;;3.77;0.62;;;;;;;20.50;27.75;101217.87;1735704;82;21366;-66
2021/05/09 06:41:35;;;;;;;1.32;0.85;;;;;;;20.63;27.76;101228.73;1735771;81;20956;-67
2021/05/09 06:44:08;;;;;;;1.00;0.60;;;;;;;20.71;28.08;101220.88;1735670;81;21011;-69
2021/05/09 06:46:34;;;;;;;1.50;0.68;;;;;;;20.76;28.33;101225.27;1735647;82;20916;-69
2021/05/09 06:49:03;;;;;;;2.42;0.68;;;;;;;20.99;28.24;101228.97;1735660;82;20948;-69
2021/05/09 06:51:31;;;;;;;4.60;0.80;;;;;;;21.13;25.82;101232.48;1735788;81;22111;-68
2021/05/09 06:54:00;;;;;;;1.80;0.50;;;;;;;21.19;26.26;101222.57;1735625;82;21475;-69
2021/05/09 06:56:31;;;;;;;0.65;0.57;;;;;;;21.20;24.88;101215.41;1735466;81;21023;-67
2021/05/09 06:59:00;;;;;;;0.88;0.70;;;;;;;21.01;25.81;101218.97;1735589;82;20959;-67
2021/05/09 07:01:28;;;;;;;2.85;0.70;;;;;;;20.96;26.34;101234.56;1735768;81;20960;-67
2021/05/09 07:03:56;;;;;;;0.53;0.50;;;;;;;21.14;26.06;101231.48;1735646;81;21351;-67
2021/05/09 07:06:24;;;;;;;1.40;0.50;;;;;;;21.27;26.42;101229.33;1735626;81;20948;-66
2021/05/09 07:08:52;;;;;;;0.57;0.30;;;;;;;21.47;25.75;101243.45;1735707;82;21023;-66
2021/05/09 07:11:20;;;;;;;2.27;0.70;;;;;;;21.71;26.29;101230.89;1735622;82;21000;-66
2021/05/09 07:13:48;;;;;;;3.52;0.70;;;;;;;21.94;25.62;101221.11;1735715;81;21051;-68
2021/05/09 07:16:17;;;;;;;1.02;0.60;;;;;;;21.93;24.97;101230.13;1735761;82;21727;-69
2021/05/09 07:18:45;;;;;;;2.55;1.10;;;;;;;21.90;25.22;101232.61;1735619;81;20971;-68
2021/05/09 07:21:16;;;;;;;1.10;0.80;;;;;;;21.87;24.10;101236.91;1735624;82;20968;-67
2021/05/09 07:23:47;;;;;;;1.90;0.62;;;;;;;21.56;25.10;101220.37;1735675;82;20939;-66
2021/05/09 07:26:15;;;;;;;1.35;0.40;;;;;;;21.31;25.13;101235.22;1735800;82;21477;-66
2021/05/09 07:28:43;;;;;;;0.40;0.40;;;;;;;21.27;25.91;101247.16;1735713;82;22384;-66
2021/05/09 07:31:11;;;;;;;2.35;0.47;;;;;;;21.39;25.16;101234.47;1727880;82;21050;-66
2021/05/09 07:33:41;;;;;;;0.47;0.42;;;;;;;21.41;25.81;101245.40;1686597;84;21023;-66
2021/05/09 07:36:11;;;;;;;0.45;0.42;;;;;;;21.48;24.80;101241.14;1706348;84;21031;-67
2021/05/09 07:38:38;;;;;;;1.15;0.50;;;;;;;21.43;24.63;101223.41;1663753;84;21038;-67
2021/05/09 07:41:06;;;;;;;1.52;0.47;;;;;;;21.29;24.67;101218.02;1706330;83;21375;-69
2021/05/09 07:43:35;;;;;;;0.93;0.50;;;;;;;21.20;24.51;101233.57;1706290;84;21412;-67
2021/05/09 07:46:03;;;;;;;0.75;0.50;;;;;;;21.24;25.04;101235.47;1706169;84;20960;-67
2021/05/09 07:48:32;;;;;;;1.12;0.40;;;;;;;21.22;25.47;101218.77;1706302;83;21019;-69
2021/05/09 07:51:00;;;;;;;0.93;0.40;;;;;;;21.21;24.65;101251.75;1706365;83;20976;-68
2021/05/09 07:53:28;;;;;;;0.40;0.40;;;;;;;21.06;23.63;101229.55;1706400;84;21133;-69
2021/05/09 07:55:56;;;;;;;1.75;0.42;;;;;;;20.89;24.64;101239.64;1706201;83;21413;-68
2021/05/09 07:58:24;;;;;;;1.80;0.65;;;;;;;20.97;25.44;101234.94;1706110;84;20935;-69
2021/05/09 08:00:53;;;;;;;4.17;0.55;;;;;;;21.25;25.91;101231.80;1706202;83;20983;-67
2021/05/09 08:03:21;;;;;;;1.32;0.62;;;;;;;21.33;25.27;101226.08;1706279;84;21047;-67
2021/05/09 08:05:50;;;;;;;1.77;0.50;;;;;;;21.43;24.58;101239.42;1706331;83;22222;-71
2021/05/09 08:08:21;;;;;;;1.20;0.60;;;;;;;21.32;24.63;101249.75;1706227;84;21516;-67
2021/05/09 08:10:51;;;;;;;0.40;0.40;;;;;;;21.30;24.80;101245.06;1686955;82;20948;-66
2021/05/09 08:13:20;;;;;;;4.10;0.57;;;;;;;21.17;24.81;101246.38;1706366;83;21007;-68
2021/05/09 08:15:48;;;;;;;0.93;0.57;;;;;;;21.15;24.95;101243.02;1706408;84;21607;-68
2021/05/09 08:18:24;;;;;;;1.35;0.42;;;;;;;20.98;24.74;101236.09;1706331;84;21399;-67
2021/05/09 08:20:55;;;;;;;5.37;0.50;;;;;;;20.72;25.52;101243.03;1706294;83;20999;-68
2021/05/09 08:23:24;;;;;;;3.90;0.60;;;;;;;20.46;25.17;101244.45;1706423;84;21122;-65
2021/05/09 08:25:52;;;;;;;1.07;0.75;;;;;;;20.32;25.74;101239.55;1706389;82;20999;-67
2021/05/09 08:28:20;;;;;;;1.00;0.37;;;;;;;20.18;26.78;101241.28;1706462;84;20979;-68
2021/05/09 08:30:48;;;;;;;1.67;0.37;;;;;;;20.20;25.67;101244.16;1706459;83;21396;-67
2021/05/09 08:33:17;;;;;;;2.25;0.40;;;;;;;20.20;25.74;101227.34;1706400;84;20959;-66
2021/05/09 08:35:45;;;;;;;0.70;0.60;;;;;;;20.25;25.31;101241.94;1706574;83;21458;-67
2021/05/09 08:38:13;;;;;;;1.32;0.53;;;;;;;20.40;25.21;101257.48;1706416;84;20975;-66
2021/05/09 08:40:42;;;;;;;1.05;0.53;;;;;;;20.44;25.15;101244.23;1711194;82;21002;-65
2021/05/09 08:43:10;;;;;;;1.42;0.50;;;;;;;20.47;25.45;101253.27;1720010;83;21365;-67
2021/05/09 08:45:38;;;;;;;2.33;0.42;;;;;;;20.48;24.87;101265.13;1719980;83;21619;-67
2021/05/09 08:48:07;;;;;;;1.05;0.72;;;;;;;20.31;24.97;101262.33;1719981;83;20974;-66
2021/05/09 08:50:36;;;;;;;0.55;0.40;;;;;;;20.22;25.14;101271.50;1719916;83;21380;-66
2021/05/09 08:53:04;;;;;;;1.70;0.47;;;;;;;20.18;25.61;101256.77;1720015;82;20963;-65
2021/05/09 08:55:33;;;;;;;1.47;0.40;;;;;;;20.32;25.48;101244.02;1720156;83;21201;-65
2021/05/09 08:58:03;;;;;;;1.75;0.70;;;;;;;20.35;24.93;101270.39;1694026;83;20966;-64
2021/05/09 09:00:31;;;;;;;0.47;0.40;;;;;;;20.24;25.82;101277.53;1719970;83;20962;-65
2021/05/09 09:03:04;;;;;;;2.15;0.78;;;;;;;19.87;26.43;101270.66;1720099;83;21038;-66
2021/05/09 09:05:42;;;;;;;;;;;;;;;19.61;27.49;101286.27;1722508;83;20931;-66
2021/05/09 09:08:11;;;;;;;3.80;0.50;;;;;;;19.57;27.44;101288.34;1720047;83;21381;-65
2021/05/09 09:10:47;;;;;;;3.33;0.90;;;;;;;19.42;26.64;101291.84;1719965;83;21432;-67
2021/05/09 09:13:35;;;;;;;0.72;0.60;;;;;;;19.39;27.55;101292.12;1719992;83;20970;-65
2021/05/09 09:16:07;;;;;;;0.72;0.50;;;;;;;19.49;27.76;101288.66;1719616;82;21050;-65
2021/05/09 09:18:38;;;;;;;0.68;0.33;;;;;;;19.53;27.49;101295.40;1720094;83;20939;-65
2021/05/09 09:21:22;;;;;;;3.72;0.57;;;;;;;19.52;27.63;101291.91;1719938;83;21376;-65
2021/05/09 09:23:55;;;;;;;1.52;0.70;;;;;;;19.51;27.02;101290.20;1719926;83;21105;-66
2021/05/09 09:26:39;;;;;;;1.32;0.60;;;;;;;19.53;27.40;101286.92;1720018;82;21080;-65
2021/05/09 09:29:24;;;;;;;1.17;0.60;;;;;;;19.46;26.43;101295.09;1720010;83;20947;-64
2021/05/09 09:31:55;;;;;;;2.47;0.45;;;;;;;19.37;27.11;101305.20;1719918;82;21011;-66
2021/05/09 09:34:39;;;;;;;2.85;0.55;;;;;;;19.00;26.66;101296.38;1719775;83;21446;-65
2021/05/09 09:37:09;;;;;;;1.70;0.60;;;;;;;18.71;27.53;101312.09;1719903;82;20970;-66
2021/05/09 09:39:53;;;;;;;4.72;0.72;;;;;;;18.59;28.91;101303.33;1719927;83;21532;-66
2021/05/09 09:42:42;;;;;;;0.80;0.50;;;;;;;18.64;28.63;101303.78;1719763;83;21046;-67
2021/05/09 09:45:25;;;;;;;0.82;0.65;;;;;;;18.89;28.71;101315.88;1720007;82;21077;-66
2021/05/09 09:48:01;;;;;;;1.72;0.80;;;;;;;19.34;27.67;101301.45;1719950;83;21372;-65
2021/05/09 09:50:46;;;;;;;5.60;1.82;;;;;;;19.32;28.28;101307.39;1719854;82;20919;-66
2021/05/09 09:53:37;;;;;;;5.83;0.82;;;;;;;19.26;28.17;101310.11;1719918;82;21050;-68
2021/05/09 09:56:21;;;;;;;4.10;0.60;;;;;;;19.14;27.69;101333.74;1720024;82;20974;-69
2021/05/09 09:58:57;;;;;;;1.27;0.80;;;;;;;18.92;28.18;101319.62;1720116;83;21041;-67
2021/05/09 10:01:36;;;;;;;1.42;0.40;;;;;;;18.72;28.99;101321.27;1719908;83;22366;-67
2021/05/09 10:04:07;;;;;;;1.52;0.80;;;;;;;18.78;29.05;101323.91;1719867;83;21392;-65
2021/05/09 10:06:38;;;;;;;3.60;0.40;;;;;;;19.02;29.58;101331.16;1719868;83;20963;-67
2021/05/09 10:09:07;;;;;;;2.25;0.95;;;;;;;19.39;28.80;101325.37;1719887;83;21022;-66
2021/05/09 10:11:37;;;;;;;1.47;0.72;;;;;;;19.43;28.40;101328.59;1719906;83;20962;-67
2021/05/09 10:14:07;;;;;;;4.87;0.50;;;;;;;19.23;28.56;101332.95;1719992;82;22167;-67
2021/05/09 10:16:40;;;;;;;1.40;0.50;;;;;;;18.98;28.24;101343.02;1719842;83;20958;-65
2021/05/09 10:19:13;;;;;;;1.57;0.70;;;;;;;18.67;28.19;101338.55;1719997;83;20911;-64
2021/05/09 10:21:42;;;;;;;2.37;0.70;;;;;;;18.40;28.12;101344.66;1719932;82;20994;-64
2021/05/09 10:24:21;;;;;;;3.20;0.50;;;;;;;18.02;28.60;101341.97;1719972;82;20978;-63
2021/05/09 10:26:59;;;;;;;2.45;0.78;;;;;;;17.74;29.07;101343.30;1719902;83;21267;-66
2021/05/09 10:29:41;;;;;;;2.58;0.88;;;;;;;17.49;29.35;101356.29;1712971;83;20970;-68
2021/05/09 10:32:29;;;;;;;1.05;0.62;;;;;;;17.59;29.62;101358.61;1719844;82;20998;-67
2021/05/09 10:35:08;;;;;;;2.17;0.57;;;;;;;17.85;28.47;101352.23;1719892;82;20955;-68
2021/05/09 10:37:45;;;;;;;2.05;0.80;;;;;;;17.90;28.53;101340.80;1719952;82;21030;-67
2021/05/09 10:40:30;;;;;;;2.40;0.90;;;;;;;18.02;28.15;101343.30;1719813;83;21367;-66
2021/05/09 10:43:09;;;;;;;0.80;0.80;;;;;;;18.19;29.09;101343.28;1719778;83;21010;-67
2021/05/09 10:45:44;;;;;;;0.68;0.60;;;;;;;18.50;29.92;101354.08;1719941;83;21440;-73
2021/05/09 10:48:34;;;;;;;1.72;0.88;;;;;;;18.59;28.75;101354.64;1719809;83;21022;-74
2021/05/09 10:51:09;;;;;;;0.72;0.72;;;;;;;18.70;28.17;101367.51;1720029;83;21554;-67
2021/05/09 10:53:43;;;;;;;1.27;0.50;;;;;;;18.80;28.21;101358.69;1719959;83;21380;-72
2021/05/09 10:56:21;;;;;;;1.30;0.50;;;;;;;19.11;28.29;101360.61;1720005;82;20987;-67
2021/05/09 10:58:53;;;;;;;1.42;0.70;;;;;;;19.40;27.58;101357.62;1719914;83;20959;-66
2021/05/09 11:01:34;;;;;;;0.95;0.75;;;;;;;19.33;26.80;101356.97;1719962;83;21451;-66
2021/05/09 11:04:11;;;;;;;2.75;0.60;;;;;;;19.07;27.12;101367.98;1719898;83;20974;-69
2021/05/09 11:06:48;;;;;;;4.22;0.70;;;;;;;18.78;26.54;101365.10;1719745;83;21014;-66
2021/05/09 11:09:26;;;;;;;1.67;0.70;;;;;;;18.45;27.55;101350.92;1719800;82;21054;-67
2021/05/09 11:11:55;;;;;;;0.90;0.90;;;;;;;18.13;28.19;101358.37;1719874;83;21014;-66
2021/05/09 11:14:24;;;;;;;1.32;0.62;;;;;;;17.94;28.27;101343.55;1719782;83;21133;-66
2021/05/09 11:17:07;;;;;;;0.78;0.60;;;;;;;17.71;29.23;101356.79;1719886;82;21023;-69
2021/05/09 11:19:44;;;;;;;1.50;0.88;;;;;;;17.52;28.73;101363.16;1719735;83;21511;-66
2021/05/09 11:22:12;;;;;;;0.70;0.65;;;;;;;17.43;29.41;101367.85;1719948;83;21547;-66
2021/05/09 11:24:41;;;;;;;0.50;0.50;;;;;;;17.43;29.71;101370.05;1719829;82;20958;-65
2021/05/09 11:27:13;;;;;;;0.60;0.60;;;;;;;17.38;29.90;101366.39;1719833;83;21014;-66
2021/05/09 11:29:42;;;;;;;1.00;0.68;;;;;;;17.31;29.99;101363.86;1719889;82;20994;-66
2021/05/09 11:32:13;;;;;;;5.40;1.32;;;;;;;17.36;30.78;101374.98;1719836;83;21118;-65
2021/05/09 11:35:00;;;;;;;1.50;0.85;;;;;;;17.47;30.89;101363.52;1719833;83;21062;-66
2021/05/09 11:37:40;;;;;;;0.68;0.47;;;;;;;17.57;31.50;101361.86;1719819;82;20959;-66
2021/05/09 11:40:13;;;;;;;2.00;0.80;;;;;;;17.60;29.81;101371.38;1719809;83;20943;-66
2021/05/09 11:42:42;;;;;;;2.15;0.82;;;;;;;17.46;30.19;101360.52;1710026;83;21007;-65
2021/05/09 11:45:11;;;;;;;2.05;0.70;;;;;;;17.28;30.27;101357.97;1706338;84;21395;-66